Time;durP1;ratioP1;P1;durP2;ratioP2;P2;SDS_P1;SDS_P2;PMS_P1;PMS_P2;Temp;Humidity;BMP_temperature;BMP_pressure;BME280_temperature;BME280_humidity;BME280_pressure;Samples;Min_cycle;Max_cycle;Signal;HPM_P1;HPM_P2
2022/05/19 00:01:50;;;;;;;0.70;0.70;;;7.80;99.90;;;;;;5072793;28;20679;-72
2022/05/19 00:04:16;;;;;;;0.60;0.60;;;7.90;99.90;;;;;;5071339;28;20208;-72
2022/05/19 00:06:42;;;;;;;0.60;0.60;;;8.00;99.90;;;;;;5073012;28;20660;-72
2022/05/19 00:09:08;;;;;;;0.60;0.60;;;8.10;99.90;;;;;;5071707;28;20197;-72
2022/05/19 00:11:34;;;;;;;1.30;1.20;;;8.20;99.90;;;;;;5071432;28;20209;-72
2022/05/19 00:14:01;;;;;;;0.75;0.75;;;8.20;99.90;;;;;;5073262;28;20567;-72
2022/05/19 00:16:27;;;;;;;0.85;0.85;;;8.30;99.90;;;;;;5072840;28;20221;-72
2022/05/19 00:18:53;;;;;;;0.70;0.70;;;8.50;99.90;;;;;;5073043;28;20181;-72
2022/05/19 00:21:19;;;;;;;0.70;0.70;;;8.50;99.90;;;;;;5057022;28;20220;-72
2022/05/19 00:23:45;;;;;;;0.70;0.70;;;8.60;99.90;;;;;;5052810;28;20570;-73
2022/05/19 00:26:10;;;;;;;0.70;0.70;;;8.70;99.90;;;;;;5052950;28;20253;-72
2022/05/19 00:28:36;;;;;;;4.43;1.45;;;8.80;99.90;;;;;;5051664;28;20202;-72
2022/05/19 00:31:02;;;;;;;0.70;0.70;;;8.80;99.90;;;;;;5051207;28;20209;-73
2022/05/19 00:33:28;;;;;;;0.60;0.60;;;8.90;99.90;;;;;;5052369;28;20224;-72
2022/05/19 00:35:54;;;;;;;0.60;0.60;;;9.00;99.90;;;;;;5052751;28;20598;-73
2022/05/19 00:38:20;;;;;;;0.82;0.82;;;9.00;99.90;;;;;;5052766;28;20193;-72
2022/05/19 00:40:49;;;;;;;0.80;0.80;;;9.10;99.90;;;;;;5062329;28;20215;-74
2022/05/19 00:43:15;;;;;;;0.93;0.93;;;9.10;99.90;;;;;;5074829;28;20232;-70
2022/05/19 00:46:13;;;;;;;0.70;0.70;;;9.20;99.90;;;;;;5076312;28;20204;-70
2022/05/19 00:48:57;;;;;;;0.60;0.60;;;9.20;99.90;;;;;;5071615;28;20654;-71
2022/05/19 00:51:30;;;;;;;20.05;1.95;;;9.20;99.90;;;;;;5074056;28;20236;-73
2022/05/19 00:53:57;;;;;;;1.05;0.90;;;9.10;99.90;;;;;;5076068;28;20193;-72
2022/05/19 00:56:32;;;;;;;0.75;0.75;;;9.10;99.90;;;;;;5075833;28;20651;-71
2022/05/19 00:59:13;;;;;;;1.15;0.90;;;9.10;99.90;;;;;;5060446;28;20221;-71
2022/05/19 01:01:42;;;;;;;0.65;0.65;;;9.10;99.90;;;;;;5056940;28;20197;-74
2022/05/19 01:04:25;;;;;;;0.60;0.60;;;9.00;99.90;;;;;;5056662;28;20193;-73
2022/05/19 01:06:57;;;;;;;0.80;0.80;;;8.90;99.90;;;;;;5056330;28;20197;-74
2022/05/19 01:09:23;;;;;;;1.23;0.73;;;8.90;99.90;;;;;;5054946;28;20667;-74
2022/05/19 01:11:54;;;;;;;1.23;1.13;;;8.90;99.90;;;;;;5055659;28;20249;-73
2022/05/19 01:14:19;;;;;;;0.60;0.60;;;8.80;99.90;;;;;;5055979;28;20211;-73
2022/05/19 01:16:45;;;;;;;0.80;0.77;;;8.80;99.90;;;;;;5055113;28;20194;-74
2022/05/19 01:19:31;;;;;;;0.60;0.60;;;8.80;99.90;;;;;;5056076;28;20520;-75
2022/05/19 01:22:07;;;;;;;0.60;0.60;;;8.80;99.90;;;;;;5054494;28;20735;-76
2022/05/19 01:24:40;;;;;;;0.50;0.50;;;8.80;99.90;;;;;;5054423;28;20193;-76
2022/05/19 01:27:06;;;;;;;0.88;0.85;;;8.90;99.90;;;;;;5055665;28;20212;-76
2022/05/19 01:29:32;;;;;;;0.73;0.73;;;8.90;99.90;;;;;;5055545;28;20216;-76
2022/05/19 01:32:01;;;;;;;0.50;0.50;;;8.90;99.90;;;;;;5055892;28;20663;-76
2022/05/19 01:34:30;;;;;;;0.80;0.80;;;8.90;99.90;;;;;;5055119;28;20226;-76
2022/05/19 01:36:56;;;;;;;0.60;0.60;;;9.00;99.90;;;;;;5062566;28;20201;-76
2022/05/19 01:39:25;;;;;;;0.60;0.60;;;9.10;99.90;;;;;;5074995;28;20189;-76
2022/05/19 01:42:32;;;;;;;0.60;0.60;;;9.10;99.90;;;;;;5073989;28;20197;-77
2022/05/19 01:45:29;;;;;;;0.60;0.60;;;9.10;99.90;;;;;;5075781;28;20376;-77
2022/05/19 01:48:04;;;;;;;0.63;0.63;;;9.10;99.90;;;;;;5075489;28;20205;-76
2022/05/19 01:50:33;;;;;;;0.60;0.60;;;9.00;99.90;;;;;;5075043;28;20690;-76
2022/05/19 01:53:09;;;;;;;0.60;0.60;;;8.90;99.90;;;;;;5075159;28;20212;-77
2022/05/19 01:55:56;;;;;;;0.60;0.60;;;8.80;99.90;;;;;;5075169;28;20281;-77
2022/05/19 01:58:43;;;;;;;0.70;0.70;;;8.70;99.90;;;;;;5063944;28;20190;-77
2022/05/19 02:01:10;;;;;;;0.60;0.60;;;8.60;99.90;;;;;;5089967;28;20224;-76
2022/05/19 02:03:51;;;;;;;0.60;0.60;;;8.50;99.90;;;;;;5055349;28;20687;-76
2022/05/19 02:06:19;;;;;;;3.60;2.05;;;8.40;99.90;;;;;;5055283;28;20197;-77
2022/05/19 02:08:47;;;;;;;0.57;0.57;;;8.30;99.90;;;;;;5054249;28;20198;-76
2022/05/19 02:11:19;;;;;;;0.60;0.60;;;8.20;99.90;;;;;;5054528;28;20571;-77
2022/05/19 02:13:45;;;;;;;3.25;1.60;;;8.10;99.90;;;;;;5067843;28;20193;-76
2022/05/19 02:16:14;;;;;;;0.85;0.85;;;8.00;99.90;;;;;;5074297;28;20188;-76
2022/05/19 02:18:41;;;;;;;0.60;0.60;;;7.90;99.90;;;;;;5072991;28;20563;-77
2022/05/19 02:21:07;;;;;;;0.70;0.70;;;7.80;99.90;;;;;;5072638;28;20200;-76
2022/05/19 02:23:35;;;;;;;0.70;0.70;;;7.70;99.90;;;;;;5073594;28;20200;-77
2022/05/19 02:26:01;;;;;;;1.05;1.02;;;7.60;99.90;;;;;;5074448;28;20177;-76
2022/05/19 02:28:33;;;;;;;0.60;0.60;;;7.60;99.90;;;;;;5074267;28;20564;-76
2022/05/19 02:30:59;;;;;;;1.02;1.02;;;7.50;99.90;;;;;;5072843;28;20209;-75
2022/05/19 02:33:26;;;;;;;0.95;0.95;;;7.50;99.90;;;;;;5064928;28;20287;-76
2022/05/19 02:35:51;;;;;;;0.80;0.80;;;7.50;99.90;;;;;;5073887;28;20235;-75
2022/05/19 02:38:19;;;;;;;0.98;0.82;;;7.50;99.90;;;;;;5074225;28;20197;-76
2022/05/19 02:40:46;;;;;;;0.60;0.60;;;7.50;99.90;;;;;;5074203;28;20683;-76
2022/05/19 02:43:13;;;;;;;0.90;0.90;;;7.50;99.90;;;;;;5072476;28;20193;-74
2022/05/19 02:45:39;;;;;;;0.70;0.70;;;7.60;99.90;;;;;;5072907;28;20201;-75
2022/05/19 02:48:06;;;;;;;0.80;0.80;;;7.60;99.90;;;;;;5072920;28;20562;-75
2022/05/19 02:50:32;;;;;;;0.68;0.68;;;7.80;99.90;;;;;;5072155;28;20209;-75
2022/05/19 02:52:58;;;;;;;0.63;0.63;;;7.90;99.90;;;;;;5073717;28;20251;-74
2022/05/19 02:55:25;;;;;;;0.60;0.60;;;8.00;99.90;;;;;;5072215;28;20686;-74
2022/05/19 02:57:51;;;;;;;0.60;0.60;;;8.20;99.90;;;;;;5067400;28;20547;-76
2022/05/19 03:00:20;;;;;;;0.80;0.80;;;8.30;99.90;;;;;;5053517;28;20198;-77
2022/05/19 03:02:46;;;;;;;0.70;0.70;;;8.40;99.90;;;;;;5066376;28;20246;-75
2022/05/19 03:05:15;;;;;;;0.60;0.60;;;8.50;99.90;;;;;;5073335;28;20193;-75
2022/05/19 03:07:41;;;;;;;1.10;0.98;;;8.60;99.90;;;;;;5073068;28;20270;-74
2022/05/19 03:10:07;;;;;;;0.80;0.80;;;8.70;99.90;;;;;;5073441;28;20209;-76
2022/05/19 03:12:33;;;;;;;2.47;1.60;;;8.80;99.90;;;;;;5071700;28;20201;-77
2022/05/19 03:14:59;;;;;;;0.70;0.70;;;8.80;99.90;;;;;;5073415;28;20250;-76
2022/05/19 03:17:25;;;;;;;2.05;1.52;;;8.90;99.90;;;;;;5073052;28;20258;-76
2022/05/19 03:19:55;;;;;;;0.70;0.70;;;9.00;99.90;;;;;;5071984;28;20270;-77
2022/05/19 03:22:21;;;;;;;0.60;0.60;;;9.00;99.90;;;;;;5071970;28;20193;-76
2022/05/19 03:24:48;;;;;;;0.52;0.52;;;9.10;99.90;;;;;;5073371;28;20203;-76
2022/05/19 03:27:14;;;;;;;0.60;0.60;;;9.10;99.90;;;;;;5073756;28;20287;-78
2022/05/19 03:29:40;;;;;;;0.60;0.60;;;9.20;99.90;;;;;;5072428;28;20631;-75
2022/05/19 03:32:06;;;;;;;0.65;0.65;;;9.30;99.90;;;;;;5073615;28;20215;-76
2022/05/19 03:34:32;;;;;;;0.60;0.60;;;9.40;99.90;;;;;;5072630;28;20220;-76
2022/05/19 03:37:03;;;;;;;1.50;1.40;;;9.40;99.90;;;;;;5071805;28;20765;-76
2022/05/19 03:39:29;;;;;;;0.60;0.60;;;9.60;99.90;;;;;;5072724;28;20258;-76
2022/05/19 03:41:55;;;;;;;0.70;0.70;;;9.60;99.90;;;;;;5072987;28;20193;-75
2022/05/19 03:44:21;;;;;;;2.15;1.45;;;9.70;99.90;;;;;;5073094;28;20193;-75
2022/05/19 03:46:46;;;;;;;0.70;0.70;;;9.70;99.90;;;;;;5073145;28;20254;-76
2022/05/19 03:49:13;;;;;;;0.60;0.60;;;9.80;99.90;;;;;;5072903;28;20220;-75
2022/05/19 03:51:40;;;;;;;0.60;0.60;;;9.80;99.90;;;;;;5070754;28;20216;-76
2022/05/19 03:54:07;;;;;;;2.13;1.30;;;9.90;99.90;;;;;;5072060;28;20251;-76
2022/05/19 03:56:33;;;;;;;1.75;0.80;;;9.90;99.90;;;;;;5071488;28;20250;-76
2022/05/19 03:58:59;;;;;;;0.73;0.73;;;9.90;99.90;;;;;;5057221;28;20225;-76
2022/05/19 04:01:25;;;;;;;0.60;0.60;;;9.90;99.90;;;;;;5052231;28;20205;-76
2022/05/19 04:03:50;;;;;;;0.70;0.70;;;9.90;99.90;;;;;;5085399;28;20205;-76
2022/05/19 04:06:17;;;;;;;0.50;0.50;;;9.90;99.90;;;;;;5052609;28;20220;-76
2022/05/19 04:08:43;;;;;;;0.50;0.50;;;10.00;99.90;;;;;;5052595;28;20236;-76
2022/05/19 04:11:09;;;;;;;1.63;0.90;;;10.10;99.90;;;;;;5052614;28;20229;-75
2022/05/19 04:13:35;;;;;;;0.75;0.75;;;10.20;99.90;;;;;;5052505;28;20196;-76
2022/05/19 04:16:02;;;;;;;0.80;0.80;;;10.30;99.90;;;;;;5054222;28;20197;-77
2022/05/19 04:18:28;;;;;;;0.60;0.60;;;10.50;99.90;;;;;;5056507;28;20185;-76
2022/05/19 04:20:57;;;;;;;1.10;1.00;;;10.70;99.90;;;;;;5056428;28;20682;-76
2022/05/19 04:23:23;;;;;;;0.60;0.60;;;10.90;99.90;;;;;;5055073;28;20194;-77
2022/05/19 04:25:49;;;;;;;0.70;0.70;;;11.10;99.90;;;;;;5075939;28;20630;-78
2022/05/19 04:28:15;;;;;;;0.98;0.88;;;11.20;99.90;;;;;;5076564;28;20204;-77
2022/05/19 04:30:43;;;;;;;0.50;0.50;;;11.20;99.90;;;;;;5076208;28;20667;-77
2022/05/19 04:33:10;;;;;;;0.57;0.57;;;11.20;99.90;;;;;;5075987;28;20201;-78
2022/05/19 04:35:36;;;;;;;0.75;0.75;;;11.20;99.90;;;;;;5075814;28;20228;-78
2022/05/19 04:38:11;;;;;;;8.98;1.65;;;11.20;99.90;;;;;;5075629;28;20200;-76
2022/05/19 04:40:42;;;;;;;0.52;0.52;;;11.20;99.90;;;;;;5075234;28;20193;-78
2022/05/19 04:43:09;;;;;;;0.60;0.60;;;11.30;99.90;;;;;;5075654;28;20199;-78
2022/05/19 04:45:35;;;;;;;0.50;0.50;;;11.30;99.90;;;;;;5077244;28;20220;-77
2022/05/19 04:48:01;;;;;;;2.20;2.00;;;11.30;99.90;;;;;;5076282;28;20204;-79
2022/05/19 04:50:27;;;;;;;0.55;0.55;;;11.30;99.90;;;;;;5076100;28;20193;-72
2022/05/19 04:52:55;;;;;;;0.50;0.50;;;11.30;99.90;;;;;;5074865;28;20197;-73
2022/05/19 04:55:20;;;;;;;0.95;0.75;;;11.20;99.90;;;;;;5074208;28;20295;-73
2022/05/19 04:57:46;;;;;;;1.58;0.95;;;11.30;99.90;;;;;;5070298;28;20273;-72
2022/05/19 05:00:14;;;;;;;0.50;0.50;;;11.30;99.90;;;;;;5055956;28;20197;-72
2022/05/19 05:02:40;;;;;;;0.55;0.55;;;11.30;99.90;;;;;;5087563;28;20660;-72
2022/05/19 05:05:07;;;;;;;0.50;0.50;;;11.40;99.90;;;;;;5055434;28;20228;-71
2022/05/19 05:07:33;;;;;;;0.60;0.60;;;11.50;99.90;;;;;;5054007;28;20194;-72
2022/05/19 05:09:59;;;;;;;0.88;0.88;;;11.40;99.90;;;;;;5055528;28;20686;-72
2022/05/19 05:12:24;;;;;;;0.93;0.93;;;11.50;99.90;;;;;;5055134;28;20205;-72
2022/05/19 05:14:51;;;;;;;0.50;0.50;;;11.60;99.90;;;;;;5054828;28;20182;-72
2022/05/19 05:17:17;;;;;;;0.60;0.60;;;11.60;99.90;;;;;;5053958;28;20201;-72
2022/05/19 05:19:43;;;;;;;2.33;1.05;;;11.70;99.90;;;;;;5055205;28;20663;-73
2022/05/19 05:22:08;;;;;;;0.60;0.60;;;11.70;99.90;;;;;;5065967;28;20211;-72
2022/05/19 05:24:34;;;;;;;0.43;0.43;;;11.80;99.90;;;;;;5075083;28;20196;-72
2022/05/19 05:27:03;;;;;;;0.30;0.30;;;11.90;99.90;;;;;;5074851;28;20196;-71
2022/05/19 05:29:28;;;;;;;9.48;0.95;;;11.90;99.90;;;;;;5075228;28;20683;-73
2022/05/19 05:32:02;;;;;;;1.10;0.88;;;12.00;99.90;;;;;;5073766;28;20212;-73
2022/05/19 05:34:27;;;;;;;0.60;0.60;;;12.00;99.90;;;;;;5073869;28;20257;-74
2022/05/19 05:36:54;;;;;;;0.60;0.60;;;11.90;99.90;;;;;;5073979;28;20613;-74
2022/05/19 05:39:22;;;;;;;0.60;0.60;;;11.90;99.90;;;;;;5075157;28;20200;-74
2022/05/19 05:41:48;;;;;;;0.52;0.52;;;12.00;99.90;;;;;;5075057;28;20288;-74
2022/05/19 05:44:19;;;;;;;1.02;0.93;;;12.00;99.90;;;;;;5073059;28;20224;-74
2022/05/19 05:46:45;;;;;;;1.70;1.50;;;12.10;99.90;;;;;;5073779;28;20199;-74
2022/05/19 05:49:11;;;;;;;0.95;0.95;;;12.10;99.90;;;;;;5073359;28;20200;-74
2022/05/19 05:51:39;;;;;;;0.70;0.70;;;12.10;99.90;;;;;;5074447;28;20205;-73
2022/05/19 05:54:10;;;;;;;0.57;0.57;;;12.10;99.90;;;;;;5073626;28;20197;-73
2022/05/19 05:56:36;;;;;;;0.50;0.50;;;12.10;99.90;;;;;;5073201;28;20557;-72
2022/05/19 05:59:02;;;;;;;0.57;0.57;;;12.10;99.90;;;;;;5074549;28;20272;-74
2022/05/19 06:01:27;;;;;;;0.68;0.68;;;12.20;99.90;;;;;;5072883;28;20197;-74
2022/05/19 06:03:53;;;;;;;0.50;0.50;;;12.30;99.90;;;;;;5074168;28;20242;-74
2022/05/19 06:06:19;;;;;;;0.70;0.70;;;12.40;99.90;;;;;;5074001;28;20196;-73
2022/05/19 06:08:45;;;;;;;0.40;0.40;;;12.50;99.90;;;;;;5074383;28;20745;-74
2022/05/19 06:11:12;;;;;;;0.93;0.93;;;12.60;99.90;;;;;;5074160;28;20200;-74
2022/05/19 06:13:38;;;;;;;1.15;0.68;;;12.70;99.90;;;;;;5074093;28;20628;-74
2022/05/19 06:16:04;;;;;;;0.90;0.68;;;12.90;99.90;;;;;;5074374;28;20242;-73
2022/05/19 06:18:30;;;;;;;1.20;0.95;;;12.90;99.90;;;;;;5061165;28;20586;-73
2022/05/19 06:20:56;;;;;;;0.50;0.50;;;13.10;99.90;;;;;;5053045;28;20648;-74
2022/05/19 06:23:22;;;;;;;0.50;0.50;;;13.40;99.90;;;;;;5053720;28;20193;-74
2022/05/19 06:25:47;;;;;;;0.40;0.40;;;13.70;99.90;;;;;;5053594;28;20193;-74
2022/05/19 06:28:14;;;;;;;5.05;1.15;;;13.70;99.90;;;;;;5060912;28;20311;-74
2022/05/19 06:30:40;;;;;;;0.50;0.50;;;13.70;99.90;;;;;;5073506;28;20212;-73
2022/05/19 06:33:06;;;;;;;0.63;0.63;;;13.80;99.90;;;;;;5073445;28;20207;-74
2022/05/19 06:35:40;;;;;;;0.50;0.50;;;13.80;99.90;;;;;;5073438;28;20224;-74
2022/05/19 06:38:07;;;;;;;1.00;0.93;;;13.80;99.90;;;;;;5071859;28;20188;-73
2022/05/19 06:40:34;;;;;;;0.40;0.40;;;13.80;99.90;;;;;;5073525;28;20536;-74
2022/05/19 06:43:00;;;;;;;0.52;0.52;;;13.90;99.90;;;;;;5073387;28;20552;-74
2022/05/19 06:45:28;;;;;;;0.50;0.50;;;14.00;99.90;;;;;;5072851;28;20750;-74
2022/05/19 06:47:54;;;;;;;0.93;0.65;;;14.00;99.90;;;;;;5073752;28;20226;-74
2022/05/19 06:50:21;;;;;;;0.50;0.50;;;14.00;99.90;;;;;;5073153;28;20279;-73
2022/05/19 06:52:53;;;;;;;1.20;0.98;;;13.90;99.90;;;;;;5073559;28;20208;-74
2022/05/19 06:55:21;;;;;;;0.60;0.60;;;13.80;99.90;;;;;;5073125;28;20208;-73
2022/05/19 06:57:47;;;;;;;3.03;1.35;;;13.70;99.90;;;;;;5067839;28;20198;-74
2022/05/19 07:00:17;;;;;;;0.77;0.77;;;13.70;99.90;;;;;;5053490;28;20244;-74
2022/05/19 07:02:51;;;;;;;0.75;0.75;;;13.70;99.90;;;;;;5051803;28;20193;-74
2022/05/19 07:05:19;;;;;;;0.75;0.75;;;13.70;99.90;;;;;;5052036;28;20193;-74
2022/05/19 07:07:46;;;;;;;0.57;0.57;;;13.80;99.90;;;;;;5052358;28;20190;-74
2022/05/19 07:10:14;;;;;;;0.40;0.40;;;13.90;99.90;;;;;;5051851;28;20209;-74
2022/05/19 07:12:40;;;;;;;0.35;0.35;;;14.10;99.90;;;;;;5053077;28;20240;-73
2022/05/19 07:15:06;;;;;;;1.05;0.60;;;14.20;99.90;;;;;;5052981;28;20220;-74
2022/05/19 07:17:32;;;;;;;0.40;0.40;;;14.30;99.90;;;;;;5052841;28;20678;-74
2022/05/19 07:22:42;;;;;;;0.55;0.55;;;14.80;99.90;;;;;;5053204;28;20240;-74
2022/05/19 07:25:08;;;;;;;0.52;0.52;;;15.30;99.90;;;;;;5065715;28;20224;-73
2022/05/19 07:27:34;;;;;;;1.20;1.10;;;15.70;99.90;;;;;;5072806;28;20192;-74
2022/05/19 07:30:01;;;;;;;1.02;0.95;;;15.90;99.90;;;;;;5073089;28;20246;-74
2022/05/19 07:32:27;;;;;;;0.30;0.30;;;16.20;99.90;;;;;;5072711;28;20659;-74
2022/05/19 07:34:56;;;;;;;0.50;0.50;;;16.50;99.90;;;;;;5072705;28;20364;-75
2022/05/19 07:37:23;;;;;;;0.43;0.43;;;16.80;99.90;;;;;;5072661;28;20243;-74
2022/05/19 07:39:49;;;;;;;0.22;0.22;;;16.80;99.90;;;;;;5073023;28;20655;-74
2022/05/19 07:42:14;;;;;;;0.47;0.47;;;16.60;99.90;;;;;;5072916;28;20204;-74
2022/05/19 07:44:41;;;;;;;0.30;0.30;;;16.50;99.90;;;;;;5071345;28;20207;-73
2022/05/19 07:47:07;;;;;;;0.50;0.50;;;16.50;99.90;;;;;;5072797;28;20564;-74
2022/05/19 07:49:33;;;;;;;0.50;0.50;;;16.40;99.90;;;;;;5072552;28;20203;-74
2022/05/19 07:51:58;;;;;;;0.22;0.22;;;16.30;99.90;;;;;;5076901;28;20212;-74
2022/05/19 07:54:26;;;;;;;0.68;0.68;;;16.10;99.90;;;;;;5076814;28;20559;-74
2022/05/19 07:56:53;;;;;;;0.40;0.40;;;16.10;99.90;;;;;;5076982;28;20203;-74
2022/05/19 07:59:19;;;;;;;0.75;0.57;;;16.10;99.90;;;;;;5058639;28;20197;-74
2022/05/19 08:01:46;;;;;;;0.50;0.50;;;16.10;99.90;;;;;;5056467;28;20653;-74
2022/05/19 08:04:13;;;;;;;0.43;0.43;;;16.20;99.90;;;;;;5056853;28;20560;-75
2022/05/19 08:06:39;;;;;;;0.45;0.45;;;16.20;99.90;;;;;;5056269;28;20259;-74
2022/05/19 08:11:53;;;;;;;0.40;0.40;;;16.20;99.90;;;;;;5074997;28;20213;-74
2022/05/19 08:17:14;;;;;;;0.32;0.32;;;16.30;99.90;;;;;;5075533;28;20789;-75
2022/05/19 08:19:47;;;;;;;0.40;0.40;;;16.50;99.90;;;;;;5074984;28;20200;-74
2022/05/19 08:22:20;;;;;;;0.50;0.50;;;16.70;99.90;;;;;;5075419;28;20203;-74
2022/05/19 08:24:49;;;;;;;0.40;0.40;;;17.10;99.90;;;;;;5074984;28;20723;-74
2022/05/19 08:27:16;;;;;;;0.28;0.28;;;17.60;99.90;;;;;;5076296;28;20592;-74
2022/05/19 08:29:42;;;;;;;6.07;0.55;;;17.80;99.90;;;;;;5064590;28;20202;-74
2022/05/19 08:32:08;;;;;;;0.40;0.40;;;18.50;99.90;;;;;;5056257;28;20212;-74
2022/05/19 08:34:33;;;;;;;0.28;0.28;;;19.00;99.90;;;;;;5055024;28;20229;-73
2022/05/19 08:36:59;;;;;;;0.35;0.35;;;19.20;99.90;;;;;;5054627;28;20244;-74
2022/05/19 08:39:25;;;;;;;0.40;0.40;;;19.50;99.90;;;;;;5088173;28;20240;-75
2022/05/19 08:42:04;;;;;;;0.60;0.50;;;19.70;99.90;;;;;;5088321;28;20198;-75
2022/05/19 08:44:41;;;;;;;0.50;0.50;;;20.00;99.90;;;;;;5088099;28;20664;-76
2022/05/19 08:47:13;;;;;;;0.40;0.40;;;20.50;99.90;;;;;;5065591;28;20245;-75
2022/05/19 08:49:52;;;;;;;0.40;0.40;;;20.50;99.90;;;;;;5075761;28;20200;-74
2022/05/19 08:52:25;;;;;;;0.55;0.55;;;20.30;99.90;;;;;;5075651;28;20687;-76
2022/05/19 08:54:54;;;;;;;0.70;0.52;;;20.60;99.90;;;;;;5075760;28;20200;-76
2022/05/19 08:57:37;;;;;;;0.30;0.30;;;20.70;99.90;;;;;;5073651;28;20225;-76
2022/05/19 09:00:22;;;;;;;0.40;0.40;;;20.50;99.90;;;;;;5054411;28;20680;-78
2022/05/19 09:02:54;;;;;;;11.57;0.70;;;20.40;99.90;;;;;;5053469;28;20247;-75
2022/05/19 09:06:01;;;;;;;0.47;0.45;;;20.30;99.90;;;;;;5055303;28;20204;-77
2022/05/19 09:08:51;;;;;;;0.35;0.35;;;20.60;99.90;;;;;;5055469;28;20208;-75
2022/05/19 09:11:25;;;;;;;0.25;0.25;;;21.10;99.90;;;;;;5055310;28;20214;-76
2022/05/19 09:14:27;;;;;;;0.20;0.20;;;21.50;99.90;;;;;;5054087;28;20200;-75
2022/05/19 09:17:00;;;;;;;0.22;0.22;;;21.70;99.90;;;;;;5063356;28;20664;-75
2022/05/19 09:19:38;;;;;;;0.20;0.20;;;21.90;99.90;;;;;;5074052;28;20193;-75
2022/05/19 09:22:07;;;;;;;3.90;0.45;;;22.20;99.90;;;;;;5075259;28;20201;-76
2022/05/19 09:24:34;;;;;;;0.20;0.20;;;22.50;99.90;;;;;;5073796;28;20279;-76
2022/05/19 09:27:01;;;;;;;0.30;0.30;;;22.40;99.90;;;;;;5073725;28;20207;-76
2022/05/19 09:29:29;;;;;;;0.30;0.30;;;22.50;99.90;;;;;;5075049;28;20708;-76
2022/05/19 09:32:10;;;;;;;0.20;0.20;;;22.60;99.90;;;;;;5075041;28;20215;-76
2022/05/19 09:34:36;;;;;;;0.32;0.32;;;22.30;99.90;;;;;;5073681;28;20818;-76
2022/05/19 09:37:35;;;;;;;0.20;0.20;;;22.40;99.90;;;;;;5075011;28;20283;-76
2022/05/19 09:40:18;;;;;;;0.47;0.47;;;22.60;99.90;;;;;;5073777;28;20200;-76
2022/05/19 09:42:54;;;;;;;0.40;0.40;;;22.70;99.90;;;;;;5074620;28;20557;-76
2022/05/19 09:45:23;;;;;;;0.30;0.30;;;22.80;99.90;;;;;;5073285;28;20204;-76
2022/05/19 09:48:01;;;;;;;0.35;0.35;;;22.80;99.90;;;;;;5074882;28;20280;-76
2022/05/19 09:50:36;;;;;;;0.40;0.40;;;22.20;99.90;;;;;;5074426;28;20245;-76
2022/05/19 09:53:17;;;;;;;0.30;0.30;;;21.80;99.90;;;;;;5073423;28;20203;-75
2022/05/19 09:55:43;;;;;;;0.30;0.30;;;21.20;99.90;;;;;;5074402;28;20264;-76
2022/05/19 09:58:17;;;;;;;0.28;0.28;;;20.90;99.90;;;;;;5066156;28;20536;-76
2022/05/19 10:00:58;;;;;;;0.70;0.38;;;20.80;99.90;;;;;;5054550;28;20182;-76
2022/05/19 10:03:41;;;;;;;0.45;0.45;;;21.60;99.90;;;;;;5063613;28;20581;-75
2022/05/19 10:06:36;;;;;;;0.30;0.30;;;21.70;99.90;;;;;;5073103;28;20204;-76
2022/05/19 10:09:11;;;;;;;5.18;0.63;;;21.60;99.90;;;;;;5071543;28;20258;-76
2022/05/19 10:11:49;;;;;;;0.30;0.30;;;21.90;99.90;;;;;;5074326;28;20200;-78
2022/05/19 10:14:27;;;;;;;0.90;0.50;;;22.10;99.90;;;;;;5073519;28;20208;-77
2022/05/19 10:17:01;;;;;;;0.43;0.30;;;22.60;99.90;;;;;;5074111;28;20337;-78
2022/05/19 10:19:56;;;;;;;0.30;0.30;;;23.10;99.90;;;;;;5073088;28;20203;-78
2022/05/19 10:22:46;;;;;;;0.20;0.20;;;23.00;99.90;;;;;;5072671;28;20200;-77
2022/05/19 10:25:34;;;;;;;35.40;1.30;;;22.80;99.90;;;;;;5072481;28;20291;-79
2022/05/19 10:31:04;;;;;;;0.20;0.20;;;23.60;99.90;;;;;;5073898;28;20250;-77
2022/05/19 10:33:45;;;;;;;0.20;0.20;;;24.30;99.90;;;;;;5073874;28;20185;-78
2022/05/19 10:36:16;;;;;;;0.30;0.30;;;24.80;99.90;;;;;;5073790;28;20273;-75
2022/05/19 10:39:19;;;;;;;1.33;0.88;;;25.30;97.90;;;;;;5071248;28;20192;-77
2022/05/19 10:42:06;;;;;;;0.15;0.15;;;25.60;96.80;;;;;;5053821;28;20287;-78
2022/05/19 10:44:44;;;;;;;0.20;0.20;;;25.40;93.60;;;;;;5053729;28;20224;-78
2022/05/19 10:47:46;;;;;;;0.30;0.30;;;26.20;94.70;;;;;;5053781;28;20301;-78
2022/05/19 10:50:31;;;;;;;0.30;0.30;;;26.60;92.30;;;;;;5053940;28;20651;-78
2022/05/19 10:53:18;;;;;;;0.20;0.20;;;26.10;93.20;;;;;;5052349;28;20224;-78
2022/05/19 10:55:47;;;;;;;0.30;0.30;;;26.50;93.50;;;;;;5053585;28;20661;-78
2022/05/19 10:58:34;;;;;;;0.20;0.20;;;26.90;90.30;;;;;;5053404;28;20194;-78
2022/05/19 11:01:03;;;;;;;0.10;0.10;;;26.20;91.50;;;;;;5053304;28;20197;-79
2022/05/19 11:03:57;;;;;;;0.55;0.55;;;26.00;90.50;;;;;;5052018;28;20231;-76
2022/05/19 11:06:46;;;;;;;0.20;0.20;;;25.70;91.60;;;;;;5053198;28;20250;-75
2022/05/19 11:09:34;;;;;;;0.45;0.32;;;26.00;89.30;;;;;;5059608;28;20200;-76
2022/05/19 11:12:25;;;;;;;0.20;0.20;;;26.10;90.70;;;;;;5071910;28;20586;-75
2022/05/19 11:15:29;;;;;;;0.43;0.43;;;25.60;89.20;;;;;;5053274;28;20563;-76
2022/05/19 11:18:13;;;;;;;0.28;0.25;;;25.00;90.20;;;;;;5051342;28;20189;-76
2022/05/19 11:21:03;;;;;;;0.30;0.30;;;24.40;91.60;;;;;;5051679;28;20201;-75
2022/05/19 11:23:59;;;;;;;0.30;0.30;;;24.90;92.20;;;;;;5051555;28;20201;-76
2022/05/19 11:26:34;;;;;;;0.35;0.35;;;25.20;91.00;;;;;;5052744;28;20553;-76
2022/05/19 11:29:06;;;;;;;0.57;0.40;;;25.80;92.40;;;;;;5052989;28;20189;-76
2022/05/19 11:31:54;;;;;;;0.10;0.10;;;25.70;90.90;;;;;;5053009;28;20208;-75
2022/05/19 11:34:43;;;;;;;0.28;0.28;;;25.50;90.70;;;;;;5052650;28;20236;-76
2022/05/19 11:37:26;;;;;;;0.30;0.30;;;26.00;93.60;;;;;;5052986;28;20292;-76
2022/05/19 11:40:15;;;;;;;0.17;0.17;;;26.00;90.00;;;;;;5051536;28;20193;-73
2022/05/19 11:42:54;;;;;;;1.73;0.77;;;26.00;90.90;;;;;;5052749;28;20609;-76
2022/05/19 11:45:49;;;;;;;0.13;0.13;;;25.90;91.10;;;;;;5052436;28;20600;-77
2022/05/19 11:57:29;;;;;;;0.30;0.25;;;24.50;91.10;;;;;;5054161;28;20204;-76
2022/05/19 11:59:58;;;;;;;7.97;1.13;;;24.20;91.60;;;;;;5072913;28;20184;-76
2022/05/19 12:02:30;;;;;;;0.32;0.32;;;23.50;92.20;;;;;;5072493;28;20276;-77
2022/05/19 12:05:09;;;;;;;1.48;0.68;;;23.20;93.50;;;;;;5072585;28;20212;-77
2022/05/19 12:07:45;;;;;;;0.10;0.10;;;23.30;93.60;;;;;;5072655;28;20205;-78
2022/05/19 12:10:17;;;;;;;0.40;0.40;;;23.10;94.10;;;;;;5071188;28;20191;-78
2022/05/19 12:12:50;;;;;;;0.30;0.30;;;23.10;93.50;;;;;;5072466;28;20204;-78
2022/05/19 12:15:23;;;;;;;0.65;0.57;;;23.20;93.50;;;;;;5072571;28;20553;-78
2022/05/19 12:17:56;;;;;;;0.63;0.52;;;23.30;93.20;;;;;;5072676;28;20651;-79
2022/05/19 12:20:53;;;;;;;0.43;0.30;;;23.50;92.70;;;;;;5071009;28;20193;-77
2022/05/19 12:23:38;;;;;;;0.20;0.20;;;23.20;90.90;;;;;;5071587;28;20667;-78
2022/05/19 12:26:16;;;;;;;1.65;0.57;;;22.70;92.10;;;;;;5072646;28;20203;-78
2022/05/19 12:28:51;;;;;;;0.75;0.63;;;22.80;92.70;;;;;;5072526;28;20196;-77
2022/05/19 12:34:02;;;;;;;0.22;0.22;;;22.90;92.10;;;;;;5052273;28;20578;-78
2022/05/19 12:36:41;;;;;;;0.52;0.50;;;22.50;91.40;;;;;;5052687;28;20205;-78
2022/05/19 12:39:17;;;;;;;0.20;0.20;;;22.50;92.50;;;;;;5054927;28;20190;-77
2022/05/19 12:41:49;;;;;;;0.10;0.10;;;22.70;92.00;;;;;;5054582;28;20568;-78
2022/05/19 12:44:45;;;;;;;0.73;0.60;;;23.00;92.10;;;;;;5056036;28;20198;-78
2022/05/19 12:47:17;;;;;;;0.20;0.20;;;23.20;90.60;;;;;;5054658;28;20201;-78
2022/05/19 12:50:01;;;;;;;0.20;0.20;;;23.10;91.10;;;;;;5055812;28;20194;-78
2022/05/19 12:52:53;;;;;;;0.50;0.50;;;23.20;91.40;;;;;;5055828;28;20259;-78
2022/05/19 12:55:22;;;;;;;0.40;0.28;;;23.20;91.40;;;;;;5054133;28;20197;-77
2022/05/19 12:57:49;;;;;;;0.20;0.20;;;23.40;90.70;;;;;;5056600;28;20292;-80
2022/05/19 13:00:41;;;;;;;0.40;0.40;;;23.50;90.90;;;;;;5054419;28;20198;-76
2022/05/19 13:03:17;;;;;;;0.30;0.30;;;23.50;90.80;;;;;;5072733;28;20235;-74
2022/05/19 13:05:54;;;;;;;0.20;0.20;;;23.20;91.70;;;;;;5074118;28;20724;-79
2022/05/19 13:08:37;;;;;;;0.68;0.68;;;22.90;92.10;;;;;;5074101;28;20667;-77
2022/05/19 13:11:18;;;;;;;1.35;0.98;;;22.70;91.80;;;;;;5063145;28;20568;-80
2022/05/19 13:13:59;;;;;;;0.47;0.40;;;22.60;90.90;;;;;;5055776;28;20663;-82
2022/05/19 13:16:26;;;;;;;2.58;1.13;;;22.40;91.60;;;;;;5087608;28;20195;-77
2022/05/19 13:18:57;;;;;;;0.40;0.40;;;22.40;91.60;;;;;;5055512;28;20532;-77
2022/05/19 13:21:37;;;;;;;4.95;0.73;;;22.10;91.90;;;;;;5055166;28;20293;-78
2022/05/19 13:24:07;;;;;;;0.50;0.50;;;22.20;93.30;;;;;;5055308;28;20189;-79
2022/05/19 13:26:39;;;;;;;0.30;0.30;;;22.40;92.80;;;;;;5087262;28;20201;-78
2022/05/19 13:32:11;;;;;;;0.50;0.50;;;22.30;93.30;;;;;;5075065;28;20250;-77
2022/05/19 13:34:49;;;;;;;0.25;0.25;;;22.10;93.80;;;;;;5074884;28;20212;-78
2022/05/19 13:37:32;;;;;;;1.10;0.95;;;22.00;94.70;;;;;;5074864;28;20602;-75
2022/05/19 13:40:12;;;;;;;0.30;0.30;;;22.00;95.10;;;;;;5073772;28;20196;-75
2022/05/19 13:42:42;;;;;;;0.50;0.50;;;21.70;95.00;;;;;;5074668;28;20663;-74